createdAt,value
2023-03-28T00:01:57.146Z,0.34
2023-03-28T00:04:14.429Z,0.31
2023-03-28T00:06:31.950Z,0.28
2023-03-28T00:08:49.215Z,0.26
2023-03-28T00:11:06.547Z,0.25
2023-03-28T00:13:24.742Z,0.23
2023-03-28T00:15:42.725Z,0.22
2023-03-28T00:18:00.353Z,0.24
2023-03-28T00:20:17.672Z,0.22
2023-03-28T00:22:34.676Z,0.19
2023-03-28T00:24:51.962Z,0.22
2023-03-28T00:27:09.238Z,0.21
2023-03-28T00:29:26.525Z,0.17
2023-03-28T00:31:43.911Z,0.15
2023-03-28T00:34:02.259Z,0.12
2023-03-28T00:36:19.332Z,0.08
2023-03-28T00:38:36.405Z,0.06
2023-03-28T00:40:54.651Z,0.01
2023-03-28T00:43:11.886Z,0.00
2023-03-28T00:45:28.882Z,-0.04
2023-03-28T00:47:46.051Z,-0.06
2023-03-28T00:50:03.469Z,-0.08
2023-03-28T00:52:20.403Z,-0.09
2023-03-28T00:54:37.395Z,-0.10
2023-03-28T00:56:54.386Z,-0.10
2023-03-28T00:59:11.289Z,-0.13
2023-03-28T01:01:28.386Z,-0.14
2023-03-28T01:03:45.785Z,-0.16
2023-03-28T01:06:03.196Z,-0.13
2023-03-28T01:08:20.233Z,-0.13
2023-03-28T01:10:37.289Z,-0.15
2023-03-28T01:12:54.576Z,-0.15
2023-03-28T01:15:13.051Z,-0.16
2023-03-28T01:17:29.953Z,-0.21
2023-03-28T01:19:47.026Z,-0.25
2023-03-28T01:22:04.031Z,-0.30
2023-03-28T01:24:21.366Z,-0.30
2023-03-28T01:26:38.510Z,-0.29
2023-03-28T01:28:55.503Z,-0.30
2023-03-28T01:31:12.803Z,-0.28
2023-03-28T01:33:29.908Z,-0.30
2023-03-28T01:35:46.946Z,-0.35
2023-03-28T01:38:04.006Z,-0.40
2023-03-28T01:40:20.835Z,-0.43
2023-03-28T01:42:37.887Z,-0.47
2023-03-28T01:44:54.977Z,-0.48
2023-03-28T01:47:12.281Z,-0.42
2023-03-28T01:49:29.349Z,-0.45
2023-03-28T01:51:46.608Z,-0.48
2023-03-28T01:54:04.584Z,-0.51
2023-03-28T01:56:21.608Z,-0.50
2023-03-28T01:58:38.645Z,-0.52
2023-03-28T02:00:55.742Z,-0.57
2023-03-28T02:03:13.159Z,-0.61
2023-03-28T02:05:30.527Z,-0.64
2023-03-28T02:07:47.626Z,-0.68
2023-03-28T02:10:04.527Z,-0.69
2023-03-28T02:12:21.476Z,-0.73
2023-03-28T02:14:38.689Z,-0.75
2023-03-28T02:16:55.746Z,-0.73
2023-03-28T02:19:13.098Z,-0.72
2023-03-28T02:21:29.996Z,-0.73
2023-03-28T02:23:46.997Z,-0.71
2023-03-28T02:26:05.077Z,-0.69
2023-03-28T02:28:23.412Z,-0.70
2023-03-28T02:30:40.693Z,-0.73
2023-03-28T02:32:58.014Z,-0.79
2023-03-28T02:35:15.283Z,-0.83
2023-03-28T02:37:33.552Z,-0.82
2023-03-28T02:39:50.619Z,-0.83
2023-03-28T02:42:07.605Z,-0.84
2023-03-28T02:44:27.192Z,-0.88
2023-03-28T02:46:44.333Z,-0.90
2023-03-28T02:49:01.642Z,-0.92
2023-03-28T02:51:18.642Z,-0.96
2023-03-28T02:53:36.831Z,-0.98
2023-03-28T02:55:54.154Z,-1.01
2023-03-28T02:58:11.576Z,-1.06
2023-03-28T03:00:30.556Z,-1.09
2023-03-28T03:02:47.509Z,-1.11
2023-03-28T03:05:04.850Z,-1.13
2023-03-28T03:07:21.846Z,-1.15
2023-03-28T03:09:38.822Z,-1.17
2023-03-28T03:11:55.753Z,-1.15
2023-03-28T03:14:12.816Z,-1.15
2023-03-28T03:16:30.081Z,-1.15
2023-03-28T03:18:47.029Z,-1.15
2023-03-28T03:21:04.319Z,-1.16
2023-03-28T03:23:21.674Z,-1.18
2023-03-28T03:25:38.980Z,-1.18
2023-03-28T03:27:56.190Z,-1.23
2023-03-28T03:30:13.190Z,-1.29
2023-03-28T03:32:31.314Z,-1.34
2023-03-28T03:34:48.328Z,-1.38
2023-03-28T03:37:05.599Z,-1.40
2023-03-28T03:39:23.798Z,-1.42
2023-03-28T03:41:41.018Z,-1.44
2023-03-28T03:43:58.364Z,-1.44
2023-03-28T03:46:15.471Z,-1.43
2023-03-28T03:48:32.526Z,-1.44
2023-03-28T03:50:49.592Z,-1.46
2023-03-28T03:53:06.579Z,-1.48
2023-03-28T03:55:23.892Z,-1.49
2023-03-28T03:57:41.161Z,-1.50
2023-03-28T03:59:58.196Z,-1.53
2023-03-28T04:02:15.239Z,-1.55
2023-03-28T04:04:32.293Z,-1.55
2023-03-28T04:06:49.387Z,-1.56
2023-03-28T04:09:06.707Z,-1.58
2023-03-28T04:11:23.770Z,-1.62
2023-03-28T04:13:40.962Z,-1.64
2023-03-28T04:15:58.089Z,-1.66
2023-03-28T04:18:15.580Z,-1.67
2023-03-28T04:20:32.659Z,-1.69
2023-03-28T04:22:49.719Z,-1.69
2023-03-28T04:25:06.638Z,-1.72
2023-03-28T04:27:23.681Z,-1.72
2023-03-28T04:29:40.717Z,-1.75
2023-03-28T04:31:57.773Z,-1.76
2023-03-28T04:34:15.973Z,-1.79
2023-03-28T04:36:33.052Z,-1.76
2023-03-28T04:38:50.002Z,-1.74
2023-03-28T04:41:06.989Z,-1.73
2023-03-28T04:43:24.004Z,-1.74
2023-03-28T04:45:42.284Z,-1.74
2023-03-28T04:47:59.196Z,-1.78
2023-03-28T04:50:16.491Z,-1.81
2023-03-28T04:52:34.482Z,-1.87
2023-03-28T04:54:51.409Z,-1.88
2023-03-28T04:57:08.391Z,-1.92
2023-03-28T04:59:25.444Z,-1.90
2023-03-28T05:01:42.476Z,-1.92
2023-03-28T05:03:59.831Z,-1.92
2023-03-28T05:06:16.766Z,-1.93
2023-03-28T05:08:33.836Z,-1.95
2023-03-28T05:10:50.826Z,-1.97
2023-03-28T05:13:08.142Z,-1.99
2023-03-28T05:15:25.371Z,-2.02
2023-03-28T05:17:42.720Z,-2.06
2023-03-28T05:19:59.758Z,-2.06
2023-03-28T05:22:17.824Z,-2.07
2023-03-28T05:24:36.865Z,-2.06
2023-03-28T05:26:54.066Z,-1.98
2023-03-28T05:29:11.130Z,-1.97
2023-03-28T05:31:28.187Z,-1.97
2023-03-28T05:33:46.462Z,-1.94
2023-03-28T05:36:03.515Z,-1.93
2023-03-28T05:38:20.610Z,-1.92
2023-03-28T05:40:37.701Z,-1.94
2023-03-28T05:42:54.587Z,-1.96
2023-03-28T05:45:11.617Z,-1.97
2023-03-28T05:47:28.924Z,-1.99
2023-03-28T05:49:47.290Z,-1.99
2023-03-28T05:52:04.557Z,-1.98
2023-03-28T05:54:23.351Z,-1.97
2023-03-28T05:56:40.448Z,-1.99
2023-03-28T05:58:57.799Z,-2.00
2023-03-28T06:01:14.785Z,-2.00
2023-03-28T06:03:31.938Z,-1.99
2023-03-28T06:05:49.274Z,-1.99
2023-03-28T06:08:06.282Z,-1.97
2023-03-28T06:10:23.287Z,-1.96
2023-03-28T06:12:40.231Z,-1.97
2023-03-28T06:14:57.470Z,-1.92
2023-03-28T06:17:14.747Z,-1.89
2023-03-28T06:19:32.027Z,-1.90
2023-03-28T06:21:49.051Z,-1.84
2023-03-28T06:24:06.088Z,-1.78
2023-03-28T06:26:23.149Z,-1.77
2023-03-28T06:28:40.414Z,-1.78
2023-03-28T06:30:58.657Z,-1.77
2023-03-28T06:33:16.007Z,-1.77
2023-03-28T06:35:33.085Z,-1.78
2023-03-28T06:37:50.299Z,-1.77
2023-03-28T06:40:07.632Z,-1.75
2023-03-28T06:42:25.823Z,-1.71
2023-03-28T06:44:42.924Z,-1.64
2023-03-28T06:46:59.977Z,-1.65
2023-03-28T06:49:18.040Z,-1.64
2023-03-28T06:51:35.239Z,-1.60
2023-03-28T06:53:52.493Z,-1.51
2023-03-28T06:56:09.703Z,-1.45
2023-03-28T06:58:26.720Z,-1.40
2023-03-28T07:00:43.944Z,-1.34
2023-03-28T07:03:01.348Z,-1.33
2023-03-28T07:05:18.419Z,-1.28
2023-03-28T07:07:35.390Z,-1.16
2023-03-28T07:09:53.761Z,-1.00
2023-03-28T07:12:10.821Z,-0.85
2023-03-28T07:14:27.862Z,-0.72
2023-03-28T07:16:45.178Z,-0.60
2023-03-28T07:19:02.265Z,-0.45
2023-03-28T07:21:19.367Z,-0.24
2023-03-28T07:23:36.699Z,-0.06
2023-03-28T07:25:54.626Z,0.15
2023-03-28T07:28:11.622Z,0.35
2023-03-28T07:30:28.745Z,0.56
2023-03-28T07:35:05.701Z,0.92
2023-03-28T07:37:22.732Z,1.08
2023-03-28T07:39:39.754Z,1.22
2023-03-28T07:41:57.012Z,1.37
2023-03-28T07:44:14.308Z,1.49
2023-03-28T07:46:31.218Z,1.69
2023-03-28T07:48:48.522Z,1.84
2023-03-28T07:51:05.509Z,2.00
2023-03-28T07:53:22.554Z,2.18
2023-03-28T07:57:59.812Z,2.42
2023-03-28T08:00:16.750Z,2.59
2023-03-28T08:02:33.855Z,2.78
2023-03-28T08:04:51.819Z,2.91
2023-03-28T08:07:08.817Z,3.05
2023-03-28T08:09:26.037Z,3.21
2023-03-28T08:11:43.319Z,3.34
2023-03-28T08:14:00.321Z,3.46
2023-03-28T08:16:17.662Z,3.53
2023-03-28T08:18:34.722Z,3.66
2023-03-28T08:20:51.665Z,3.71
2023-03-28T08:23:09.003Z,3.82
2023-03-28T08:25:26.365Z,3.99
2023-03-28T08:27:43.607Z,4.11
2023-03-28T08:30:00.618Z,4.32
2023-03-28T08:32:17.580Z,4.51
2023-03-28T08:34:34.696Z,4.72
2023-03-28T08:36:52.644Z,4.96
2023-03-28T08:39:09.975Z,5.12
2023-03-28T08:41:27.002Z,5.33
2023-03-28T08:43:45.018Z,5.45
2023-03-28T08:46:03.076Z,5.76
2023-03-28T08:48:20.704Z,5.92
2023-03-28T08:50:37.652Z,6.04
2023-03-28T08:52:54.918Z,6.24
2023-03-28T08:55:12.073Z,6.49
2023-03-28T08:57:29.022Z,6.71
2023-03-28T08:59:46.041Z,6.72
2023-03-28T09:02:03.056Z,6.88
2023-03-28T09:04:21.064Z,6.93
2023-03-28T09:06:38.175Z,7.05
2023-03-28T09:08:55.395Z,7.07
2023-03-28T09:11:12.471Z,6.93
2023-03-28T09:13:29.332Z,6.89
2023-03-28T09:15:46.602Z,7.06
2023-03-28T09:18:03.954Z,7.11
2023-03-28T09:20:21.279Z,7.24
2023-03-28T09:22:39.128Z,7.36
2023-03-28T09:24:56.198Z,7.46
2023-03-28T09:27:13.226Z,7.42
2023-03-28T09:29:30.314Z,7.50
2023-03-28T09:31:47.360Z,7.70
2023-03-28T09:34:04.374Z,7.90
2023-03-28T09:36:21.380Z,7.93
2023-03-28T09:38:38.722Z,8.09
2023-03-28T09:40:55.797Z,8.14
2023-03-28T09:43:13.767Z,8.30
2023-03-28T09:45:32.083Z,8.23
2023-03-28T09:47:49.292Z,8.40
2023-03-28T09:50:16.242Z,8.59
2023-03-28T09:52:33.184Z,8.78
2023-03-28T09:54:50.100Z,8.93
2023-03-28T09:57:07.421Z,8.89
2023-03-28T09:59:26.231Z,8.67
2023-03-28T10:01:45.552Z,8.60
2023-03-28T10:04:02.622Z,8.58
2023-03-28T10:06:20.964Z,8.65
2023-03-28T10:08:37.851Z,8.69
2023-03-28T10:10:55.037Z,8.75
2023-03-28T10:13:12.077Z,8.77
2023-03-28T10:15:29.153Z,8.60
2023-03-28T10:17:46.191Z,8.59
2023-03-28T10:20:03.525Z,8.61
2023-03-28T10:22:20.537Z,8.72
2023-03-28T10:24:37.863Z,8.75
2023-03-28T10:26:55.100Z,8.79
2023-03-28T10:29:12.173Z,8.75
2023-03-28T10:31:29.529Z,8.60
2023-03-28T10:33:46.778Z,8.78
2023-03-28T10:36:04.149Z,8.77
2023-03-28T10:38:21.183Z,8.91
2023-03-28T10:40:38.579Z,8.95
2023-03-28T10:42:55.634Z,8.91
2023-03-28T10:45:12.582Z,8.87
2023-03-28T10:47:30.650Z,8.72
2023-03-28T10:49:47.667Z,8.74
2023-03-28T10:52:05.006Z,8.78
2023-03-28T10:54:22.260Z,8.85
2023-03-28T10:56:39.342Z,8.79
2023-03-28T10:58:56.282Z,8.84
2023-03-28T11:01:13.317Z,8.94
2023-03-28T11:03:30.472Z,8.95
2023-03-28T11:05:54.928Z,8.75
2023-03-28T11:08:19.067Z,8.99
2023-03-28T11:10:36.368Z,9.13
2023-03-28T11:12:56.113Z,9.05
2023-03-28T11:15:14.216Z,9.22
2023-03-28T11:17:31.275Z,9.30
2023-03-28T11:19:48.561Z,9.29
2023-03-28T11:22:05.584Z,9.32
2023-03-28T11:24:22.621Z,9.41
2023-03-28T11:26:39.658Z,9.71
2023-03-28T11:28:57.613Z,9.87
2023-03-28T11:31:15.572Z,10.12
2023-03-28T11:33:32.549Z,10.48
2023-03-28T11:35:49.532Z,10.79
2023-03-28T11:38:06.833Z,10.78
2023-03-28T11:40:23.776Z,10.53
2023-03-28T11:42:40.775Z,10.73
2023-03-28T11:44:58.104Z,10.52
2023-03-28T11:47:15.457Z,11.03
2023-03-28T11:49:32.508Z,11.23
2023-03-28T11:51:49.794Z,11.25
2023-03-28T11:54:06.768Z,11.33
2023-03-28T11:56:24.061Z,11.66
2023-03-28T11:58:42.103Z,11.44
2023-03-28T12:00:59.454Z,11.44
2023-03-28T12:03:17.158Z,11.60
2023-03-28T12:05:34.595Z,11.58
2023-03-28T12:07:51.656Z,11.77
2023-03-28T12:10:08.763Z,11.75
2023-03-28T12:12:25.841Z,11.85
2023-03-28T12:14:42.843Z,11.89
2023-03-28T12:16:59.924Z,11.60
2023-03-28T12:19:17.006Z,11.68
2023-03-28T12:21:34.332Z,11.94
2023-03-28T12:23:51.347Z,11.96
2023-03-28T12:26:08.570Z,12.03
2023-03-28T12:28:25.594Z,12.27
2023-03-28T12:30:42.899Z,12.40
2023-03-28T12:33:00.092Z,12.24
2023-03-28T12:35:18.226Z,12.34
2023-03-28T12:37:35.277Z,12.55
2023-03-28T12:39:54.936Z,12.54
2023-03-28T12:42:12.144Z,12.62
2023-03-28T12:44:30.219Z,12.37
2023-03-28T12:46:47.459Z,12.48
2023-03-28T12:49:04.791Z,12.18
2023-03-28T12:51:21.899Z,12.18
2023-03-28T12:53:39.510Z,12.58
2023-03-28T12:55:57.998Z,12.53
2023-03-28T12:58:15.101Z,12.72
2023-03-28T13:00:32.108Z,12.79
2023-03-28T13:02:49.618Z,12.99
2023-03-28T13:05:06.969Z,13.09
2023-03-28T13:07:24.364Z,12.84
2023-03-28T13:09:41.773Z,13.02
2023-03-28T13:11:59.109Z,12.96
2023-03-28T13:14:16.124Z,12.76
2023-03-28T13:16:33.245Z,12.64
2023-03-28T13:18:51.292Z,12.44
2023-03-28T13:21:08.312Z,12.31
2023-03-28T13:23:25.323Z,12.26
2023-03-28T13:25:42.326Z,12.25
2023-03-28T13:27:59.301Z,12.14
2023-03-28T13:30:16.328Z,11.93
2023-03-28T13:32:33.377Z,11.89
2023-03-28T13:34:51.342Z,11.91
2023-03-28T13:37:08.679Z,11.97
2023-03-28T13:39:26.569Z,12.24
2023-03-28T13:41:43.853Z,12.51
2023-03-28T13:44:01.148Z,12.76
2023-03-28T13:46:19.223Z,12.76
2023-03-28T13:48:36.288Z,13.00
2023-03-28T13:50:53.450Z,13.12
2023-03-28T13:53:11.469Z,13.19
2023-03-28T13:55:28.537Z,13.36
2023-03-28T13:57:45.582Z,13.27
2023-03-28T14:00:02.484Z,13.24
2023-03-28T14:02:19.503Z,13.20
2023-03-28T14:04:36.669Z,13.14
2023-03-28T14:06:53.979Z,13.06
2023-03-28T14:09:11.048Z,12.85
2023-03-28T14:11:28.302Z,13.02
2023-03-28T14:13:45.432Z,13.30
2023-03-28T14:16:02.411Z,13.32
2023-03-28T14:18:19.470Z,13.16
2023-03-28T14:20:37.824Z,13.25
2023-03-28T14:23:00.508Z,13.10
2023-03-28T14:25:19.494Z,12.86
2023-03-28T14:27:36.482Z,13.16
2023-03-28T14:29:53.545Z,13.21
2023-03-28T14:32:10.843Z,13.11
2023-03-28T14:34:28.103Z,13.14
2023-03-28T14:36:45.368Z,13.14
2023-03-28T14:39:02.257Z,13.43
2023-03-28T14:41:19.522Z,13.25
2023-03-28T14:43:37.423Z,12.83
2023-03-28T14:45:54.537Z,12.99
2023-03-28T14:48:11.900Z,13.21
2023-03-28T14:50:29.120Z,13.07
2023-03-28T14:52:46.351Z,12.94
2023-03-28T14:55:03.398Z,12.84
2023-03-28T14:57:20.757Z,12.72
2023-03-28T14:59:38.204Z,12.42
2023-03-28T15:01:55.249Z,12.29
2023-03-28T15:04:12.192Z,12.10
2023-03-28T15:06:29.425Z,11.87
2023-03-28T15:08:46.611Z,11.62
2023-03-28T15:11:03.618Z,11.52
2023-03-28T15:13:22.800Z,11.50
2023-03-28T15:15:40.651Z,11.57
2023-03-28T15:17:57.785Z,11.59
2023-03-28T15:20:14.705Z,11.62
2023-03-28T15:22:31.696Z,11.64
2023-03-28T15:24:48.792Z,11.58
2023-03-28T15:27:05.702Z,11.42
2023-03-28T15:29:22.651Z,11.37
2023-03-28T15:31:39.930Z,11.31
2023-03-28T15:33:56.969Z,11.23
2023-03-28T15:36:13.894Z,11.11
2023-03-28T15:38:30.833Z,10.93
2023-03-28T15:40:48.116Z,10.93
2023-03-28T15:43:05.464Z,10.95
2023-03-28T15:45:22.589Z,10.92
2023-03-28T15:47:39.533Z,10.92
2023-03-28T15:49:56.563Z,10.79
2023-03-28T15:52:13.561Z,10.74
2023-03-28T15:54:32.020Z,10.64
2023-03-28T15:56:49.466Z,10.60
2023-03-28T15:59:06.456Z,10.55
2023-03-28T16:01:23.444Z,10.52
2023-03-28T16:03:40.814Z,10.48
2023-03-28T16:06:07.651Z,10.50
2023-03-28T16:08:27.315Z,10.51
2023-03-28T16:10:45.265Z,10.56
2023-03-28T16:13:02.519Z,10.55
2023-03-28T16:15:19.434Z,10.47
2023-03-28T16:17:36.575Z,10.46
2023-03-28T16:19:53.614Z,10.50
2023-03-28T16:22:10.903Z,10.47
2023-03-28T16:24:29.137Z,10.37
2023-03-28T16:26:46.334Z,10.32
2023-03-28T16:29:03.328Z,10.26
2023-03-28T16:31:20.664Z,10.14
2023-03-28T16:33:38.906Z,10.10
2023-03-28T16:35:56.078Z,10.05
2023-03-28T16:38:13.156Z,9.98
2023-03-28T16:40:30.431Z,9.93
2023-03-28T16:42:47.733Z,9.89
2023-03-28T16:45:04.740Z,9.92
2023-03-28T16:47:21.773Z,9.87
2023-03-28T16:49:39.715Z,9.78
2023-03-28T16:51:57.942Z,9.72
2023-03-28T16:54:14.938Z,9.60
2023-03-28T16:56:32.209Z,9.48
2023-03-28T16:58:49.487Z,9.45
2023-03-28T17:01:06.359Z,9.42
2023-03-28T17:05:41.435Z,9.36
2023-03-28T17:07:58.684Z,9.28
2023-03-28T17:10:15.726Z,9.24
2023-03-28T17:12:33.964Z,9.22
2023-03-28T17:14:50.982Z,9.17
2023-03-28T17:17:07.954Z,9.11
2023-03-28T17:19:25.281Z,9.06
2023-03-28T17:21:42.488Z,9.03
2023-03-28T17:23:59.456Z,9.01
2023-03-28T17:26:16.772Z,9.00
2023-03-28T17:28:33.786Z,8.90
2023-03-28T17:30:51.020Z,8.86
2023-03-28T17:33:08.204Z,8.83
2023-03-28T17:35:25.569Z,8.77
2023-03-28T17:37:42.861Z,8.73
2023-03-28T17:40:00.128Z,8.67
2023-03-28T17:42:17.224Z,8.64
2023-03-28T17:44:34.196Z,8.60
2023-03-28T17:46:51.443Z,8.58
2023-03-28T17:49:08.547Z,8.55
2023-03-28T17:51:25.802Z,8.52
2023-03-28T17:53:43.107Z,8.49
2023-03-28T17:56:00.544Z,8.47
2023-03-28T17:58:17.791Z,8.44
2023-03-28T18:00:34.773Z,8.39
2023-03-28T18:02:51.921Z,8.35
2023-03-28T18:05:09.284Z,8.28
2023-03-28T18:07:26.619Z,8.23
2023-03-28T18:09:43.660Z,8.19
2023-03-28T18:12:00.737Z,8.15
2023-03-28T18:14:18.070Z,8.12
2023-03-28T18:16:35.370Z,8.09
2023-03-28T18:18:53.448Z,8.10
2023-03-28T18:21:10.527Z,8.06
2023-03-28T18:23:27.505Z,8.07
2023-03-28T18:25:44.409Z,8.10
2023-03-28T18:28:01.731Z,8.05
2023-03-28T18:30:19.046Z,8.03
2023-03-28T18:32:36.127Z,8.00
2023-03-28T18:34:53.526Z,7.95
2023-03-28T18:37:10.823Z,7.88
2023-03-28T18:39:28.218Z,7.89
2023-03-28T18:41:45.732Z,7.87
2023-03-28T18:44:02.618Z,7.85
2023-03-28T18:46:19.833Z,7.82
2023-03-28T18:48:36.865Z,7.78
2023-03-28T18:50:53.923Z,7.75
2023-03-28T18:53:10.998Z,7.75
2023-03-28T18:55:28.002Z,7.73
2023-03-28T18:57:45.928Z,7.72
2023-03-28T19:00:03.828Z,7.69
2023-03-28T19:02:20.748Z,7.66
2023-03-28T19:04:38.044Z,7.63
2023-03-28T19:06:56.115Z,7.64
2023-03-28T19:09:13.453Z,7.63
2023-03-28T19:11:32.520Z,7.70
2023-03-28T19:13:49.823Z,7.69
2023-03-28T19:16:07.291Z,7.68
2023-03-28T19:18:24.281Z,7.68
2023-03-28T19:20:42.295Z,7.60
2023-03-28T19:22:59.553Z,7.53
2023-03-28T19:25:16.619Z,7.47
2023-03-28T19:27:33.529Z,7.54
2023-03-28T19:29:50.537Z,7.55
2023-03-28T19:32:07.485Z,7.43
2023-03-28T19:34:24.438Z,7.31
2023-03-28T19:36:41.352Z,7.27
2023-03-28T19:38:58.247Z,7.28
2023-03-28T19:41:15.818Z,7.28
2023-03-28T19:43:32.928Z,7.20
2023-03-28T19:45:49.927Z,7.15
2023-03-28T19:48:07.092Z,7.11
2023-03-28T19:50:24.431Z,7.05
2023-03-28T19:52:41.466Z,7.03
2023-03-28T19:54:58.693Z,7.05
2023-03-28T19:57:15.783Z,7.00
2023-03-28T19:59:33.069Z,6.92
2023-03-28T20:01:50.182Z,6.90
2023-03-28T20:04:07.329Z,6.89
2023-03-28T20:06:24.354Z,6.86
2023-03-28T20:08:41.257Z,6.78
2023-03-28T20:10:58.676Z,6.72
2023-03-28T20:13:16.153Z,6.74
2023-03-28T20:15:33.233Z,6.72
2023-03-28T20:17:51.581Z,6.69
2023-03-28T20:20:08.618Z,6.72
2023-03-28T20:22:25.597Z,6.70
2023-03-28T20:24:42.544Z,6.66
2023-03-28T20:26:59.561Z,6.70
2023-03-28T20:29:16.645Z,6.70
2023-03-28T20:31:33.784Z,6.70
2023-03-28T20:33:50.829Z,6.61
2023-03-28T20:36:08.900Z,6.61
2023-03-28T20:38:26.890Z,6.66
2023-03-28T20:40:43.903Z,6.66
2023-03-28T20:43:01.414Z,6.63
2023-03-28T20:45:18.709Z,6.67
2023-03-28T20:47:35.696Z,6.63
2023-03-28T20:49:52.734Z,6.62
2023-03-28T20:52:09.797Z,6.57
2023-03-28T20:54:26.750Z,6.57
2023-03-28T20:56:43.761Z,6.56
2023-03-28T20:59:00.793Z,6.51
2023-03-28T21:01:18.189Z,6.54
2023-03-28T21:03:35.271Z,6.54
2023-03-28T21:05:52.278Z,6.52
2023-03-28T21:08:09.602Z,6.49
2023-03-28T21:10:26.945Z,6.45
2023-03-28T21:12:44.265Z,6.43
2023-03-28T21:15:01.387Z,6.40
2023-03-28T21:17:19.642Z,6.37
2023-03-28T21:19:37.929Z,6.37
2023-03-28T21:21:54.942Z,6.38
2023-03-28T21:24:11.997Z,6.37
2023-03-28T21:26:29.251Z,6.35
2023-03-28T21:28:46.370Z,6.36
2023-03-28T21:31:04.023Z,6.35
2023-03-28T21:33:21.300Z,6.34
2023-03-28T21:35:38.258Z,6.32
2023-03-28T21:37:55.249Z,6.32
2023-03-28T21:40:12.492Z,6.34
2023-03-28T21:42:29.531Z,6.31
2023-03-28T21:44:46.810Z,6.33
2023-03-28T21:47:04.098Z,6.30
2023-03-28T21:49:21.121Z,6.32
2023-03-28T21:51:38.421Z,6.33
2023-03-28T21:53:55.454Z,6.31
2023-03-28T21:56:12.878Z,6.30
2023-03-28T21:58:31.183Z,6.27
2023-03-28T22:00:48.234Z,6.28
2023-03-28T22:03:06.199Z,6.31
2023-03-28T22:05:29.834Z,6.29
2023-03-28T22:07:47.002Z,6.25
2023-03-28T22:10:04.055Z,6.27
2023-03-28T22:12:21.058Z,6.30
2023-03-28T22:14:38.010Z,6.34
2023-03-28T22:16:55.262Z,6.35
2023-03-28T22:19:12.351Z,6.33
2023-03-28T22:21:29.376Z,6.34
2023-03-28T22:23:47.067Z,6.33
2023-03-28T22:26:05.590Z,6.30
2023-03-28T22:28:22.686Z,6.27
2023-03-28T22:30:39.915Z,6.27
2023-03-28T22:32:58.981Z,6.23
2023-03-28T22:35:17.106Z,6.21
2023-03-28T22:37:34.365Z,6.19
2023-03-28T22:39:51.411Z,6.20
2023-03-28T22:42:08.702Z,6.19
2023-03-28T22:44:25.790Z,6.21
2023-03-28T22:46:42.940Z,6.19
2023-03-28T22:49:00.243Z,6.18
2023-03-28T22:51:17.537Z,6.13
2023-03-28T22:53:34.604Z,6.12
2023-03-28T22:55:51.648Z,6.11
2023-03-28T22:58:08.665Z,6.06
2023-03-28T23:00:25.596Z,6.01
2023-03-28T23:02:42.670Z,6.01
2023-03-28T23:04:59.744Z,5.98
2023-03-28T23:07:17.019Z,5.96
2023-03-28T23:09:34.040Z,6.00
2023-03-28T23:11:51.397Z,6.05
2023-03-28T23:14:09.467Z,6.05
2023-03-28T23:16:26.793Z,6.07
2023-03-28T23:18:44.726Z,6.08
2023-03-28T23:21:02.474Z,6.06
2023-03-28T23:23:19.639Z,6.04
2023-03-28T23:25:36.606Z,6.02
2023-03-28T23:27:53.635Z,6.02
2023-03-28T23:30:11.981Z,6.03
2023-03-28T23:32:29.141Z,6.01
2023-03-28T23:34:46.432Z,5.99
2023-03-28T23:37:03.487Z,5.99
2023-03-28T23:39:20.578Z,5.97
2023-03-28T23:41:37.635Z,5.97
2023-03-28T23:43:54.579Z,5.94
2023-03-28T23:46:11.604Z,5.93
2023-03-28T23:48:28.462Z,5.95
2023-03-28T23:50:45.559Z,5.93
2023-03-28T23:53:03.428Z,5.91
2023-03-28T23:55:20.501Z,5.88
2023-03-28T23:57:38.418Z,5.87
2023-03-28T23:59:56.569Z,5.86
